Kezdőlap
METAR-TAF:

METAR-TAF

Repülőterek :

Grant County Airport

Silver City, Új-Mexikó, Amerikai Egyesült Államok

földrajzi szélesség: 32-38N, földrajzi hosszúság: 108-09W, magasság: 1659 m

Jelenlegi meteorológiai megfigyelések

A jelentés 8 perccel ezelõtt készült, 17:35 UTC
Nyugati szél 15 kt széllökések: 22 kt
Hőmérséklet 13°C
Páratartalom 47%
Légköri nyomás 1013 hPa
Látótávolság: 16.1 km
Derült ég

METAR: KSVC 151735Z AUTO 27015G22KT 10SM CLR 13/02 A2992 RMK AO2 T01260015

Idő: 10:43 (17:43 UTC)


TAF: hiányzik

Meteorológiai megfigyelések és előrejelzések több, mint 4000 repülőtéren (METAR és TAF jelentéseket).

A térképen piros és sárga pontok jelzik az elérhető meteorológiai állomásokat.

Mozgassa az egeret a pont fölött, hogy megjelenjen az állomás neve.

Azután kattintson az időjárási megfigyelések és előrejelzések megtekintéséhez.

A térkép megváltoztatása: kattintson a fekete keresztel jelölt zöld gombra ráközelítéshez, a vonallal jelölt zöld gombra távolításhoz, vagy a zöld nyilakra a szomszédos térképek eléréséhez.


METAR-TAF: